Airfield :
LOGIN :

Register | Disclaimer

   EN    FR    IT 

 










Legend :    VFR   Marginal VFR   IFR   Intensive IFR   Very Intensive IFR
Visi :
Ceiling :
>= 8 km
>= 3000ft
5 to 8 km
1000 to 3000 ft
1500m to 5 km
500 to 1000 ft
800 to 1500m
200 to 500 ft
< 800m
< 200 ft
Symbols :   Thunderstorms  Fog  Heavy snow  Heavy precipitations  Wind > 20 kt
SIGMETs :     Misc.  Thunderstorms  Icing  Turbulence  Mountain Waves  Volcanic Ashes







- Airport Elevation : 160 ft
- IATA code : FMO


EDDG - Münster Osnabrück Int.

CURRENT METAR :
  • 181450Z 23008KT CAVOK 03/M04 Q1020 NOSIG

EXPIRED METARs :
  • 181420Z 21008KT 170V240 CAVOK 04/M04 Q1020 NOSIG
  • 181350Z 22008KT CAVOK 04/M04 Q1019 NOSIG
  • 181320Z 22005KT 190V280 9999 FEW040 04/M03 Q1019 NOSIG
  • 181250Z 24006KT 9999 FEW040 04/M02 Q1020 NOSIG
  • 181220Z 25008KT 9999 FEW040 03/M02 Q1020 NOSIG

TAF TAF EDDG
Valid from the 18 at 12:00 until the 19 at 12:00 UTC


181100Z 1812/1912 21005KT CAVOK
BECMG 1817/1820 13004KT
PROB30
TEMPO 1902/1910 4000 BR
No reported NOTAMs for that airfield.



MET'MAP, your aeronautical weather chart ! - Copyright ORBIFLY December 2007 - Disclaimer

ORBIFLY MET'MAP TEAM :

Programming & Development : Alexandra Zaïnal
Concept & Development : Baudouin d'Aumeries
Co-Development & Prog : Marc-Olivier Méhu
Technical & hardware support : Manuel Goepfert

Contact : metmap@orbifly.com




SOURCES & CREDITS :

   NOAA